Time;durP1;ratioP1;P1;durP2;ratioP2;P2;SDS_P1;SDS_P2;PMS_P1;PMS_P2;Temp;Humidity;BMP_temperature;BMP_pressure;BME280_temperature;BME280_humidity;BME280_pressure;Samples;Min_cycle;Max_cycle;Signal;HPM_P1;HPM_P2
2020/12/08 00:02:03;;;;;;;54.63;29.67;;;;;;;1.85;96.87;100186.31;5034212;28;20045;-78
2020/12/08 00:04:29;;;;;;;53.03;30.42;;;;;;;1.88;96.80;100199.31;5015792;28;20060;-78
2020/12/08 00:06:54;;;;;;;51.17;28.60;;;;;;;1.89;96.76;100207.97;5017864;28;20106;-77
2020/12/08 00:09:19;;;;;;;56.25;29.75;;;;;;;1.95;96.43;100203.50;5038129;28;20025;-79
2020/12/08 00:11:46;;;;;;;52.92;30.35;;;;;;;1.97;96.24;100193.06;5016387;28;20021;-77
2020/12/08 00:14:12;;;;;;;50.75;29.73;;;;;;;1.89;96.10;100195.81;5039332;28;20052;-78
2020/12/08 00:16:38;;;;;;;51.15;28.67;;;;;;;1.87;96.34;100188.91;5018245;28;20036;-78
2020/12/08 00:19:05;;;;;;;53.72;29.30;;;;;;;1.79;96.36;100187.31;5006299;28;20024;-77
2020/12/08 00:21:31;;;;;;;53.08;30.45;;;;;;;1.72;96.78;100185.72;5043793;28;20470;-78
2020/12/08 00:23:56;;;;;;;52.25;29.23;;;;;;;1.78;97.14;100188.19;5018765;28;20044;-79
2020/12/08 00:26:21;;;;;;;48.88;28.33;;;;;;;1.78;96.66;100190.81;5036779;28;20044;-77
2020/12/08 00:28:46;;;;;;;52.83;28.70;;;;;;;1.78;96.48;100177.78;5038867;28;20028;-82
2020/12/08 00:31:11;;;;;;;49.15;27.50;;;;;;;1.73;96.86;100182.22;5039420;28;20021;-82
2020/12/08 00:33:37;;;;;;;45.13;27.83;;;;;;;1.71;96.92;100184.00;5041756;28;20041;-81
2020/12/08 00:36:02;;;;;;;51.88;30.00;;;;;;;1.63;97.31;100185.88;5039897;28;20034;-81
2020/12/08 00:38:28;;;;;;;50.92;28.73;;;;;;;1.63;97.47;100191.09;5040501;28;20119;-81
2020/12/08 00:40:53;;;;;;;51.72;28.02;;;;;;;1.65;97.38;100185.84;5042684;28;20029;-83
2020/12/08 00:43:19;;;;;;;56.40;28.30;;;;;;;1.64;97.58;100194.53;5003433;28;20481;-83
2020/12/08 00:45:46;;;;;;;50.90;29.38;;;;;;;1.61;97.57;100203.28;5043078;28;20090;-82
2020/12/08 00:48:11;;;;;;;50.92;28.73;;;;;;;1.67;97.48;100204.94;5008038;28;20087;-82
2020/12/08 00:50:37;;;;;;;53.72;30.10;;;;;;;1.68;97.18;100207.50;5042033;28;20022;-82
2020/12/08 00:53:02;;;;;;;52.15;28.40;;;;;;;1.72;97.12;100200.50;5044363;28;20090;-82
2020/12/08 00:55:27;;;;;;;54.22;28.00;;;;;;;1.74;96.91;100203.91;5020086;28;20029;-82
2020/12/08 00:57:53;;;;;;;54.50;27.35;;;;;;;1.82;96.92;100202.03;5024902;28;20030;-82
2020/12/08 01:00:19;;;;;;;50.17;26.95;;;;;;;1.90;96.95;100213.16;5040197;28;20104;-82
2020/12/08 01:02:45;;;;;;;48.85;28.35;;;;;;;1.81;96.77;100206.38;5038071;28;20479;-82
2020/12/08 01:05:11;;;;;;;49.88;27.92;;;;;;;1.84;96.70;100212.41;5040219;28;20037;-82
2020/12/08 01:07:37;;;;;;;54.38;29.88;;;;;;;1.72;97.43;100203.09;5023714;28;20487;-82
2020/12/08 01:10:04;;;;;;;60.08;29.25;;;;;;;1.73;97.27;100210.88;5005319;28;20067;-82
2020/12/08 01:12:29;;;;;;;52.40;28.75;;;;;;;1.67;97.33;100203.19;5041764;28;20029;-82
2020/12/08 01:14:55;;;;;;;53.33;30.23;;;;;;;1.61;97.51;100212.81;5037727;28;20029;-82
2020/12/08 01:17:21;;;;;;;53.47;29.33;;;;;;;1.59;97.63;100206.78;5038273;28;20033;-82
2020/12/08 01:19:46;;;;;;;53.95;31.05;;;;;;;1.57;97.99;100219.00;5042352;28;20087;-82
2020/12/08 01:22:11;;;;;;;55.00;30.25;;;;;;;1.54;97.93;100218.16;5041026;28;20033;-82
2020/12/08 01:24:36;;;;;;;56.33;29.13;;;;;;;1.49;97.92;100224.31;5040689;28;20025;-82
2020/12/08 01:27:02;;;;;;;54.50;28.55;;;;;;;1.49;98.08;100216.50;5041190;28;20025;-79
2020/12/08 01:29:27;;;;;;;54.40;31.13;;;;;;;1.41;98.32;100216.66;5038302;28;20420;-78
2020/12/08 01:31:52;;;;;;;54.55;27.75;;;;;;;1.45;98.34;100213.09;5038890;28;20041;-78
2020/12/08 01:34:17;;;;;;;57.42;30.27;;;;;;;1.40;98.46;100208.84;5035962;28;20026;-78
2020/12/08 01:36:43;;;;;;;54.58;29.33;;;;;;;1.42;98.72;100217.53;5037047;28;20021;-78
2020/12/08 01:39:08;;;;;;;55.33;29.80;;;;;;;1.38;98.64;100213.25;5041477;28;20094;-78
2020/12/08 01:41:33;;;;;;;53.42;31.75;;;;;;;1.37;98.56;100207.19;5041580;28;20068;-77
2020/12/08 01:43:59;;;;;;;58.78;31.08;;;;;;;1.37;98.51;100209.78;5022735;28;20092;-78
2020/12/08 01:46:26;;;;;;;55.75;30.10;;;;;;;1.34;98.54;100203.75;5042979;28;20117;-78
2020/12/08 01:48:53;;;;;;;55.92;30.85;;;;;;;1.32;98.62;100210.75;5019500;28;20025;-78
2020/12/08 01:51:20;;;;;;;56.95;31.13;;;;;;;1.31;98.80;100209.88;5041307;28;20101;-77
2020/12/08 01:53:48;;;;;;;60.17;32.83;;;;;;;1.32;98.71;100208.16;5018578;28;20029;-78
2020/12/08 01:56:14;;;;;;;58.83;32.33;;;;;;;1.31;98.87;100215.09;5021413;28;20113;-77
2020/12/08 01:58:40;;;;;;;59.92;32.72;;;;;;;1.22;98.96;100203.09;5038620;28;20143;-78
2020/12/08 02:01:06;;;;;;;57.80;32.55;;;;;;;1.25;99.12;100218.63;5023135;28;20051;-79
2020/12/08 02:03:31;;;;;;;63.83;33.40;;;;;;;1.23;99.23;100220.41;5016107;28;20057;-78
2020/12/08 02:05:56;;;;;;;64.43;34.35;;;;;;;1.26;99.37;100216.91;5019538;28;20635;-78
2020/12/08 02:08:37;;;;;;;55.05;32.05;;;;;;;1.21;99.43;100221.34;5035845;28;20036;-78
2020/12/08 02:11:03;;;;;;;60.67;31.88;;;;;;;1.20;99.65;100211.78;5015173;28;20047;-78
2020/12/08 02:13:30;;;;;;;61.58;32.17;;;;;;;1.21;99.60;100218.72;5017138;28;20028;-78
2020/12/08 02:15:55;;;;;;;63.40;32.88;;;;;;;1.23;99.41;100212.59;5038817;28;20036;-78
2020/12/08 02:18:22;;;;;;;59.83;32.47;;;;;;;1.20;99.72;100212.63;5019552;28;20037;-79
2020/12/08 02:20:53;;;;;;;66.50;34.90;;;;;;;1.21;99.64;100221.34;5041996;28;20017;-80
2020/12/08 02:23:18;;;;;;;71.13;34.05;;;;;;;1.20;99.82;100214.38;5006482;28;20060;-79
2020/12/08 02:25:43;;;;;;;66.65;35.55;;;;;;;1.15;99.91;100214.47;5040601;28;20466;-79
2020/12/08 02:28:09;;;;;;;64.70;33.70;;;;;;;1.13;100.00;100223.19;5041174;28;20029;-82
2020/12/08 02:30:35;;;;;;;65.32;33.97;;;;;;;1.11;99.83;100222.38;5034607;28;20036;-83
2020/12/08 02:33:02;;;;;;;67.35;36.15;;;;;;;1.10;100.00;100210.22;5041988;28;20425;-82
2020/12/08 02:35:27;;;;;;;69.22;35.58;;;;;;;1.07;100.00;100218.94;5036247;28;20112;-82
2020/12/08 02:37:52;;;;;;;61.45;33.83;;;;;;;0.93;99.82;100208.75;5040020;28;20481;-82
2020/12/08 02:40:18;;;;;;;60.55;33.95;;;;;;;0.92;99.98;100219.19;5019483;28;20039;-82
2020/12/08 02:42:44;;;;;;;67.03;35.28;;;;;;;0.80;100.00;100211.53;5037360;28;20417;-83
2020/12/08 02:45:11;;;;;;;63.78;32.50;;;;;;;0.66;100.00;100217.81;5003934;28;20124;-83
2020/12/08 02:47:36;;;;;;;68.60;35.35;;;;;;;0.62;100.00;100216.13;5017282;28;20039;-83
2020/12/08 02:50:03;;;;;;;71.63;35.80;;;;;;;0.57;100.00;100217.06;5036981;28;20699;-82
2020/12/08 02:52:28;;;;;;;59.47;33.25;;;;;;;0.46;100.00;100220.69;5047372;28;20021;-82
2020/12/08 02:54:54;;;;;;;71.07;35.53;;;;;;;0.39;100.00;100226.81;5035716;28;20028;-82
2020/12/08 02:57:19;;;;;;;66.82;34.10;;;;;;;0.31;100.00;100228.69;5037126;28;20137;-83
2020/12/08 02:59:44;;;;;;;66.38;33.90;;;;;;;0.30;100.00;100229.53;5013232;28;20026;-83
2020/12/08 03:05:39;;;;;;;66.30;33.00;;;;;;;0.30;100.00;100218.28;5027030;28;20055;-83
2020/12/08 03:08:04;;;;;;;67.65;35.20;;;;;;;0.37;100.00;100220.78;5043085;28;20039;-82
2020/12/08 03:10:29;;;;;;;74.53;36.47;;;;;;;0.32;100.00;100221.72;5035177;28;20029;-83
2020/12/08 03:12:55;;;;;;;69.90;34.40;;;;;;;0.17;100.00;100221.03;5041548;28;20017;-83
2020/12/08 03:15:20;;;;;;;70.95;34.88;;;;;;;0.18;100.00;100227.94;5019549;28;20474;-83
2020/12/08 03:17:45;;;;;;;70.97;34.72;;;;;;;0.06;100.00;100224.66;5041910;28;20052;-83
2020/12/08 03:20:10;;;;;;;68.93;34.20;;;;;;;0.04;100.00;100218.59;5038283;28;20032;-83
2020/12/08 03:22:36;;;;;;;77.00;34.30;;;;;;;0.15;100.00;100225.41;5041244;28;20044;-83
2020/12/08 03:25:03;;;;;;;75.75;35.80;;;;;;;0.18;100.00;100230.53;5039634;28;20033;-83
2020/12/08 03:27:29;;;;;;;74.82;36.85;;;;;;;0.23;100.00;100227.91;5023752;28;20025;-79
2020/12/08 03:29:54;;;;;;;81.05;34.58;;;;;;;0.28;100.00;100231.31;5032030;28;20520;-79
2020/12/08 03:32:19;;;;;;;75.93;35.03;;;;;;;0.38;100.00;100234.66;5051998;28;20039;-79
2020/12/08 03:34:44;;;;;;;73.97;36.05;;;;;;;0.45;100.00;100228.47;5064077;28;20040;-79
2020/12/08 03:37:10;;;;;;;76.68;35.40;;;;;;;0.57;100.00;100219.69;5066944;28;20085;-79
2020/12/08 03:39:35;;;;;;;77.55;35.95;;;;;;;0.62;100.00;100228.28;5058649;28;20127;-78
2020/12/08 03:42:03;;;;;;;78.53;35.75;;;;;;;0.70;100.00;100231.63;5063419;28;20009;-78
2020/12/08 03:44:28;;;;;;;84.95;37.50;;;;;;;0.74;100.00;100228.09;5060447;28;20013;-77
2020/12/08 03:46:56;;;;;;;75.25;35.22;;;;;;;0.82;100.00;100233.19;5050923;28;20118;-77
2020/12/08 03:49:26;;;;;;;70.97;35.60;;;;;;;0.89;100.00;100225.28;5039010;28;20036;-77
2020/12/08 03:51:51;;;;;;;67.40;34.50;;;;;;;0.93;100.00;100232.16;5043566;28;20018;-77
2020/12/08 03:54:17;;;;;;;77.43;36.50;;;;;;;0.96;100.00;100228.66;5037209;28;20035;-78
2020/12/08 03:56:45;;;;;;;72.40;34.60;;;;;;;0.97;100.00;100227.78;5041035;28;20025;-78
2020/12/08 03:59:16;;;;;;;69.18;34.42;;;;;;;0.99;100.00;100226.00;5039931;28;20078;-77
2020/12/08 04:01:41;;;;;;;64.35;32.55;;;;;;;0.95;100.00;100221.72;5016921;28;20049;-77
2020/12/08 04:04:07;;;;;;;64.65;32.65;;;;;;;0.96;100.00;100226.91;5040974;28;20107;-78
2020/12/08 04:06:32;;;;;;;61.35;32.33;;;;;;;0.86;100.00;100219.28;5016144;28;20408;-77
2020/12/08 04:08:57;;;;;;;60.55;32.75;;;;;;;0.89;100.00;100229.63;5020217;28;20083;-79
2020/12/08 04:11:22;;;;;;;63.13;32.22;;;;;;;0.80;100.00;100221.94;5020245;28;20037;-77
2020/12/08 04:13:49;;;;;;;63.10;31.48;;;;;;;0.71;100.00;100217.75;5016870;28;20371;-78
2020/12/08 04:16:14;;;;;;;65.70;31.60;;;;;;;0.65;100.00;100229.09;5014643;28;20088;-78
2020/12/08 04:18:40;;;;;;;60.30;29.55;;;;;;;0.58;100.00;100237.00;5019209;28;20442;-79
2020/12/08 04:21:05;;;;;;;58.90;32.35;;;;;;;0.45;100.00;100226.78;5025748;28;20041;-77
2020/12/08 04:23:31;;;;;;;66.05;31.75;;;;;;;0.47;100.00;100235.41;5014959;28;20101;-77
2020/12/08 04:25:56;;;;;;;61.15;31.10;;;;;;;0.57;100.00;100238.75;5001382;28;20029;-77
2020/12/08 04:28:21;;;;;;;64.32;31.23;;;;;;;0.59;100.00;100242.16;5015532;28;20026;-83
2020/12/08 04:30:46;;;;;;;67.22;31.60;;;;;;;0.49;100.00;100240.56;5022067;28;20087;-83
2020/12/08 04:33:13;;;;;;;55.80;29.10;;;;;;;0.38;100.00;100245.06;5018765;28;20040;-83
2020/12/08 04:35:42;;;;;;;64.00;33.03;;;;;;;0.40;100.00;100251.97;5023401;28;20026;-83
2020/12/08 04:38:08;;;;;;;56.53;29.90;;;;;;;0.30;100.00;100247.72;5016845;28;20127;-84
2020/12/08 04:40:33;;;;;;;61.35;29.70;;;;;;;0.27;100.00;100254.72;5022858;28;20045;-83
2020/12/08 04:43:03;;;;;;;55.15;29.63;;;;;;;0.19;100.00;100260.00;5020075;28;20056;-83
2020/12/08 04:45:28;;;;;;;61.70;31.02;;;;;;;0.06;100.00;100251.50;5019186;28;20021;-83
2020/12/08 04:47:56;;;;;;;56.78;29.08;;;;;;;0.03;100.00;100258.44;5022486;28;20037;-82
2020/12/08 04:50:21;;;;;;;67.82;31.45;;;;;;;-0.04;100.00;100261.13;5016089;28;20045;-83
2020/12/08 04:52:50;;;;;;;65.60;30.98;;;;;;;-0.03;100.00;100264.56;5021844;28;20021;-84
2020/12/08 04:55:15;;;;;;;59.28;29.55;;;;;;;-0.09;100.00;100262.03;5033164;28;20125;-83
2020/12/08 04:57:41;;;;;;;59.90;29.10;;;;;;;-0.13;100.00;100269.00;5017153;28;20113;-83
2020/12/08 05:00:09;;;;;;;60.95;29.77;;;;;;;-0.17;100.00;100269.03;5021258;28;20029;-83
2020/12/08 05:02:50;;;;;;;57.78;30.42;;;;;;;-0.23;100.00;100258.72;5019378;28;20453;-84
2020/12/08 05:05:17;;;;;;;55.83;28.45;;;;;;;-0.30;100.00;100263.97;5033813;28;20156;-84
2020/12/08 05:07:43;;;;;;;52.67;28.27;;;;;;;-0.35;100.00;100268.34;5047578;28;20021;-84
2020/12/08 05:10:09;;;;;;;56.50;29.13;;;;;;;-0.37;100.00;100269.22;5035497;28;20509;-83
2020/12/08 05:12:35;;;;;;;62.80;29.20;;;;;;;-0.41;100.00;100278.78;5044667;28;20035;-83
2020/12/08 05:15:04;;;;;;;60.35;28.98;;;;;;;-0.43;100.00;100280.53;5041904;28;20517;-83
2020/12/08 05:17:32;;;;;;;55.05;29.23;;;;;;;-0.50;100.00;100276.28;5042007;28;20424;-83
2020/12/08 05:20:07;;;;;;;61.28;28.48;;;;;;;-0.35;100.00;100286.53;5023246;28;20036;-83
2020/12/08 05:22:33;;;;;;;54.30;27.98;;;;;;;-0.41;100.00;100283.09;5019041;28;20025;-82
2020/12/08 05:25:16;;;;;;;53.42;27.80;;;;;;;-0.49;100.00;100278.00;5040911;28;20021;-84
2020/12/08 05:27:48;;;;;;;50.83;28.00;;;;;;;-0.50;100.00;100284.06;5040158;28;20107;-84
2020/12/08 05:30:13;;;;;;;49.20;26.02;;;;;;;-0.56;100.00;100278.91;5038148;28;20033;-82
2020/12/08 05:32:41;;;;;;;53.30;25.70;;;;;;;-0.59;100.00;100276.34;5043237;28;20033;-85
2020/12/08 05:35:09;;;;;;;47.38;26.42;;;;;;;-0.60;100.00;100272.03;5036296;28;20120;-83
2020/12/08 05:37:38;;;;;;;56.53;26.48;;;;;;;-0.61;100.00;100278.06;5038863;28;20025;-84
2020/12/08 05:40:06;;;;;;;54.20;26.15;;;;;;;-0.61;100.00;100281.53;5024130;28;20021;-82
2020/12/08 05:42:34;;;;;;;51.50;25.15;;;;;;;-0.72;100.00;100278.16;5037242;28;20029;-83
2020/12/08 05:44:59;;;;;;;55.55;25.98;;;;;;;-0.71;100.00;100285.06;5020450;28;20056;-83
2020/12/08 05:47:25;;;;;;;53.60;26.60;;;;;;;-0.61;100.00;100280.66;5044170;28;20379;-83
2020/12/08 05:50:00;;;;;;;57.60;27.58;;;;;;;-0.67;100.00;100285.91;5042726;28;20496;-82
2020/12/08 05:52:28;;;;;;;57.45;26.35;;;;;;;-0.69;100.00;100288.53;5025240;28;20058;-83
2020/12/08 05:55:04;;;;;;;56.53;28.27;;;;;;;-0.69;100.00;100285.06;5038390;28;20628;-84
2020/12/08 05:57:31;;;;;;;51.47;26.70;;;;;;;-0.70;100.00;100292.00;5021362;28;20029;-83
2020/12/08 05:59:56;;;;;;;56.28;26.27;;;;;;;-0.75;100.00;100287.69;5040526;28;20025;-83
2020/12/08 06:02:30;;;;;;;62.10;26.25;;;;;;;-0.80;100.00;100287.75;5038387;28;20082;-84
2020/12/08 06:04:57;;;;;;;45.90;23.65;;;;;;;-0.75;100.00;100286.00;5024256;28;20093;-83
2020/12/08 06:07:28;;;;;;;51.17;23.63;;;;;;;-0.78;100.00;100291.19;5034716;28;20030;-84
2020/12/08 06:10:10;;;;;;;47.15;24.65;;;;;;;-0.84;100.00;100284.31;5022319;28;20638;-82
2020/12/08 06:12:37;;;;;;;53.33;24.38;;;;;;;-0.83;100.00;100291.22;5000835;28;20036;-83
2020/12/08 06:15:16;;;;;;;45.13;23.05;;;;;;;-0.86;100.00;100299.00;5041872;28;20108;-85
2020/12/08 06:17:45;;;;;;;44.20;22.65;;;;;;;-0.83;100.00;100295.53;5041801;28;20370;-83
2020/12/08 06:20:11;;;;;;;47.58;23.13;;;;;;;-0.73;100.00;100304.13;5033506;28;20425;-83
2020/12/08 06:22:36;;;;;;;47.00;26.05;;;;;;;-0.81;100.00;100298.97;5035324;28;20022;-83
2020/12/08 06:25:01;;;;;;;45.60;22.63;;;;;;;-0.75;100.00;100298.97;5039490;28;20437;-82
2020/12/08 06:27:27;;;;;;;54.95;25.45;;;;;;;-0.67;100.00;100304.09;5041361;28;20036;-82
2020/12/08 06:29:54;;;;;;;51.60;24.98;;;;;;;-0.65;100.00;100303.22;5036073;28;20487;-83
2020/12/08 06:32:24;;;;;;;50.33;24.65;;;;;;;-0.63;100.00;100303.19;5039175;28;20029;-82
2020/12/08 06:34:49;;;;;;;49.85;24.63;;;;;;;-0.63;100.00;100298.00;5037283;28;20127;-83
2020/12/08 06:37:15;;;;;;;46.45;24.08;;;;;;;-0.76;100.00;100305.00;5036256;28;20119;-82
2020/12/08 06:39:40;;;;;;;44.38;22.00;;;;;;;-0.75;100.00;100311.03;5034828;28;20026;-84
2020/12/08 06:42:13;;;;;;;41.75;22.27;;;;;;;-0.83;100.00;100317.16;5034869;28;20657;-83
2020/12/08 06:44:39;;;;;;;53.00;26.55;;;;;;;-0.57;100.00;100327.34;5033347;28;20092;-83
2020/12/08 06:47:04;;;;;;;47.78;24.42;;;;;;;-0.66;100.00;100323.97;5039161;28;20133;-83
2020/12/08 06:49:39;;;;;;;49.00;24.77;;;;;;;-0.70;100.00;100324.84;5038681;28;20498;-83
2020/12/08 06:52:08;;;;;;;47.15;24.95;;;;;;;-0.71;100.00;100330.91;5010132;28;20022;-84
2020/12/08 06:54:33;;;;;;;47.33;24.20;;;;;;;-0.72;100.00;100332.66;5030889;28;20033;-83
2020/12/08 06:57:00;;;;;;;52.28;25.33;;;;;;;-0.78;100.00;100324.91;5031714;28;20029;-82
2020/12/08 06:59:28;;;;;;;44.38;24.63;;;;;;;-0.80;100.00;100337.06;4992563;28;20035;-82
2020/12/08 07:01:54;;;;;;;49.88;26.83;;;;;;;-0.88;100.00;100339.69;5030954;28;20024;-82
2020/12/08 07:04:21;;;;;;;43.35;24.38;;;;;;;-0.90;100.00;100341.44;5031008;28;20029;-82
2020/12/08 07:06:47;;;;;;;43.17;23.40;;;;;;;-0.88;100.00;100349.19;5030711;28;20021;-82
2020/12/08 07:09:12;;;;;;;39.75;23.02;;;;;;;-0.93;100.00;100341.44;5033813;28;20119;-82
2020/12/08 07:11:38;;;;;;;48.70;24.92;;;;;;;-0.86;100.00;100352.63;4999825;28;20049;-81
2020/12/08 07:14:05;;;;;;;46.80;24.77;;;;;;;-0.85;100.00;100344.00;5033865;28;20944;-82
2020/12/08 07:16:33;;;;;;;40.80;22.15;;;;;;;-0.92;100.00;100347.50;5013731;28;20381;-81
2020/12/08 07:18:58;;;;;;;47.45;23.25;;;;;;;-0.75;100.00;100366.44;5038541;28;20402;-82
2020/12/08 07:21:24;;;;;;;50.00;24.10;;;;;;;-0.75;100.00;100363.84;5033518;28;20032;-86
2020/12/08 07:23:52;;;;;;;47.03;23.90;;;;;;;-0.80;100.00;100370.78;5025589;28;20029;-83
2020/12/08 07:26:24;;;;;;;45.10;23.88;;;;;;;-0.73;100.00;100379.38;5039417;28;20049;-85
2020/12/08 07:28:50;;;;;;;47.42;23.77;;;;;;;-0.72;100.00;100376.78;5038462;28;20029;-79
2020/12/08 07:31:19;;;;;;;47.50;23.27;;;;;;;-0.74;100.00;100372.47;5023084;28;20044;-79
2020/12/08 07:33:44;;;;;;;44.25;22.48;;;;;;;-0.71;100.00;100377.63;5035326;28;20033;-80
2020/12/08 07:36:29;;;;;;;43.40;23.58;;;;;;;-0.69;100.00;100376.78;5038936;28;20033;-79
2020/12/08 07:38:56;;;;;;;41.53;22.63;;;;;;;-0.62;100.00;100381.03;5033215;28;20513;-79
2020/12/08 07:41:23;;;;;;;53.55;28.35;;;;;;;-0.63;100.00;100365.50;5035636;28;20034;-79
2020/12/08 07:43:49;;;;;;;43.97;24.45;;;;;;;-0.58;100.00;100374.09;5019158;28;20021;-80
2020/12/08 07:46:26;;;;;;;54.70;25.92;;;;;;;-0.57;100.00;100375.81;5034783;28;20033;-79
2020/12/08 07:49:05;;;;;;;50.65;26.27;;;;;;;-0.53;100.00;100380.13;5023996;28;20053;-79
2020/12/08 07:51:32;;;;;;;46.45;23.70;;;;;;;-0.52;100.00;100387.91;5023085;28;20017;-79
2020/12/08 07:53:59;;;;;;;50.40;22.88;;;;;;;-0.49;100.00;100381.84;5044074;28;20035;-78
2020/12/08 07:56:27;;;;;;;43.42;23.27;;;;;;;-0.44;100.00;100376.63;5043839;28;20029;-78
2020/12/08 07:58:53;;;;;;;48.05;23.95;;;;;;;-0.44;100.00;100382.66;5033013;28;20465;-80
2020/12/08 08:01:19;;;;;;;42.15;23.38;;;;;;;-0.34;100.00;100399.06;5040424;28;20021;-79
2020/12/08 08:03:44;;;;;;;49.67;22.63;;;;;;;-0.37;100.00;100397.31;5037947;28;20021;-80
2020/12/08 08:06:19;;;;;;;42.15;21.20;;;;;;;-0.29;100.00;100386.91;5058238;28;20109;-80
2020/12/08 08:08:47;;;;;;;42.60;22.50;;;;;;;-0.29;100.00;100399.88;5056957;28;20048;-79
2020/12/08 08:11:12;;;;;;;46.53;21.98;;;;;;;-0.29;100.00;100395.53;5055126;28;20440;-78
2020/12/08 08:13:38;;;;;;;43.30;22.02;;;;;;;-0.20;100.00;100394.63;5023312;28;20082;-78
2020/12/08 08:16:03;;;;;;;45.30;22.70;;;;;;;-0.21;100.00;100398.06;5018535;28;20032;-79
2020/12/08 08:18:31;;;;;;;38.70;21.40;;;;;;;-0.20;100.00;100397.22;5039509;28;20028;-78
2020/12/08 08:20:58;;;;;;;47.50;22.85;;;;;;;-0.18;100.00;100402.38;5042875;28;20021;-79
2020/12/08 08:23:23;;;;;;;38.85;22.23;;;;;;;-0.14;100.00;100399.75;5020955;28;20574;-78
2020/12/08 08:25:51;;;;;;;44.90;24.00;;;;;;;-0.11;100.00;100402.31;5020801;28;20025;-80
2020/12/08 08:28:17;;;;;;;40.03;22.50;;;;;;;-0.06;100.00;100403.13;5015590;28;20065;-80
2020/12/08 08:30:42;;;;;;;43.88;23.23;;;;;;;0.00;100.00;100407.47;5039035;28;20489;-79
2020/12/08 08:33:08;;;;;;;41.65;22.55;;;;;;;0.02;100.00;100405.69;5030731;28;20033;-78
2020/12/08 08:35:33;;;;;;;48.08;25.75;;;;;;;0.06;100.00;100403.94;5020739;28;20120;-79
2020/12/08 08:37:59;;;;;;;48.03;24.88;;;;;;;0.09;100.00;100411.69;5018053;28;20033;-79
2020/12/08 08:40:24;;;;;;;43.30;23.67;;;;;;;0.14;100.00;100410.78;5027464;28;20727;-81
2020/12/08 08:42:50;;;;;;;45.30;23.65;;;;;;;0.19;100.00;100406.41;5014363;28;20117;-79
2020/12/08 08:45:15;;;;;;;47.45;25.15;;;;;;;0.23;100.00;100400.31;5031297;28;20173;-78
2020/12/08 08:47:41;;;;;;;53.28;24.45;;;;;;;0.24;100.00;100411.56;4992566;28;20029;-78
2020/12/08 08:50:06;;;;;;;40.22;23.27;;;;;;;0.30;100.00;100411.50;5021946;28;20049;-79
2020/12/08 08:52:32;;;;;;;48.63;25.25;;;;;;;0.39;100.00;100416.59;5028189;28;20033;-77
2020/12/08 08:54:58;;;;;;;45.20;25.30;;;;;;;0.49;100.00;100422.59;5028335;28;20196;-78
2020/12/08 08:57:23;;;;;;;44.70;24.50;;;;;;;0.56;100.00;100415.59;5029589;28;20620;-78
2020/12/08 08:59:48;;;;;;;48.53;25.90;;;;;;;0.69;100.00;100432.78;5009400;28;20104;-79
2020/12/08 09:02:13;;;;;;;49.35;24.90;;;;;;;0.82;100.00;100429.19;5008848;28;20414;-79
2020/12/08 09:04:39;;;;;;;51.78;24.88;;;;;;;1.13;100.00;100426.22;5026199;28;20092;-79
2020/12/08 09:07:04;;;;;;;46.53;24.35;;;;;;;1.76;98.63;100416.66;5025045;28;20565;-79
2020/12/08 09:09:29;;;;;;;42.25;23.05;;;;;;;2.48;93.87;100415.47;5028398;28;20021;-78
2020/12/08 09:11:55;;;;;;;44.42;23.80;;;;;;;3.31;90.72;100403.38;5016287;28;20049;-77
2020/12/08 09:14:20;;;;;;;35.20;21.77;;;;;;;3.85;88.76;100408.25;5019220;28;20488;-78
2020/12/08 09:16:45;;;;;;;37.70;21.17;;;;;;;4.34;86.81;100409.66;5039384;28;20025;-78
2020/12/08 09:19:11;;;;;;;35.63;21.13;;;;;;;4.64;85.91;100418.47;5033301;28;20021;-79
2020/12/08 09:21:36;;;;;;;32.30;20.20;;;;;;;5.02;85.15;100417.44;5031513;28;20028;-78
2020/12/08 09:24:01;;;;;;;30.70;20.50;;;;;;;4.83;84.59;100424.94;5040284;28;20054;-79
2020/12/08 09:26:26;;;;;;;35.80;20.33;;;;;;;4.80;84.62;100414.53;5035784;28;20025;-79
2020/12/08 09:28:52;;;;;;;30.08;19.42;;;;;;;4.83;85.15;100431.94;5018584;28;20028;-78
2020/12/08 09:31:18;;;;;;;28.15;18.38;;;;;;;4.97;84.04;100428.91;5036707;28;20551;-78
2020/12/08 09:33:43;;;;;;;26.25;18.55;;;;;;;4.97;85.69;100429.78;5003014;28;20367;-78
2020/12/08 09:36:09;;;;;;;26.50;18.33;;;;;;;5.10;83.97;100432.91;5038060;28;20037;-78
2020/12/08 09:38:34;;;;;;;31.17;18.05;;;;;;;5.23;83.47;100433.44;5018468;28;20017;-79
2020/12/08 09:40:59;;;;;;;29.20;18.45;;;;;;;5.11;84.23;100432.84;5037081;28;20566;-78
2020/12/08 09:43:24;;;;;;;42.80;19.02;;;;;;;4.96;85.29;100435.06;5037327;28;20041;-77
2020/12/08 09:45:50;;;;;;;26.95;18.77;;;;;;;4.99;85.56;100422.75;5030348;28;20025;-79
2020/12/08 09:48:15;;;;;;;30.95;19.25;;;;;;;5.26;84.56;100431.56;5036665;28;20068;-79
2020/12/08 09:50:41;;;;;;;32.67;19.90;;;;;;;5.69;83.71;100419.81;5034626;28;20029;-78
2020/12/08 09:53:06;;;;;;;33.05;21.42;;;;;;;6.32;79.60;100421.28;5036203;28;20743;-78
2020/12/08 09:55:31;;;;;;;30.67;20.42;;;;;;;6.90;77.98;100419.25;5035528;28;20082;-77
2020/12/08 09:57:56;;;;;;;31.00;20.45;;;;;;;6.30;80.34;100423.09;5017116;28;20036;-78
2020/12/08 10:00:22;;;;;;;25.75;17.88;;;;;;;6.60;80.50;100415.09;5034246;28;20033;-81
2020/12/08 10:02:47;;;;;;;29.20;17.98;;;;;;;6.55;79.24;100433.63;5037174;28;20428;-80
2020/12/08 10:05:12;;;;;;;28.08;18.10;;;;;;;6.87;78.03;100427.25;5028138;28;20427;-78
2020/12/08 10:07:38;;;;;;;26.48;17.48;;;;;;;6.73;78.06;100427.75;5009616;28;20749;-79
2020/12/08 10:10:04;;;;;;;27.33;17.30;;;;;;;6.33;80.16;100432.66;5012130;28;20061;-82
2020/12/08 10:12:29;;;;;;;29.27;18.70;;;;;;;6.48;80.13;100429.50;5041896;28;20734;-78
2020/12/08 10:14:54;;;;;;;26.70;18.45;;;;;;;6.36;81.22;100428.13;5032733;28;20513;-78
2020/12/08 10:17:19;;;;;;;27.20;17.42;;;;;;;6.15;79.49;100432.34;5035522;28;20029;-77
2020/12/08 10:19:45;;;;;;;31.10;17.17;;;;;;;5.72;82.51;100427.56;5038125;28;20021;-78
2020/12/08 10:22:12;;;;;;;26.02;17.98;;;;;;;5.18;85.14;100442.28;5024807;28;20030;-79
2020/12/08 10:24:38;;;;;;;31.05;20.08;;;;;;;4.74;86.72;100442.66;5028043;28;20029;-78
2020/12/08 10:27:05;;;;;;;30.30;18.98;;;;;;;4.45;87.32;100446.00;5028980;28;20037;-85
2020/12/08 10:29:30;;;;;;;32.75;20.27;;;;;;;4.30;88.69;100440.28;5034466;28;20029;-84
2020/12/08 10:31:55;;;;;;;32.38;20.85;;;;;;;4.24;88.25;100427.34;5023331;28;20028;-84
2020/12/08 10:34:21;;;;;;;33.75;20.15;;;;;;;4.19;89.64;100439.69;5033116;28;20033;-86
2020/12/08 10:36:47;;;;;;;35.05;20.33;;;;;;;4.07;89.82;100446.09;5033768;28;20036;-86
2020/12/08 10:39:13;;;;;;;32.63;20.75;;;;;;;4.02;90.20;100445.34;5038407;28;20456;-85
2020/12/08 10:41:38;;;;;;;34.40;21.88;;;;;;;4.03;89.80;100441.81;5018301;28;20104;-85
2020/12/08 10:44:06;;;;;;;38.65;23.25;;;;;;;4.03;89.67;100440.97;5037238;28;20056;-85
2020/12/08 10:46:32;;;;;;;39.65;23.40;;;;;;;4.17;89.35;100441.50;4999425;28;20024;-85
2020/12/08 10:48:57;;;;;;;41.17;24.00;;;;;;;4.48;88.60;100441.56;5018857;28;20025;-84
2020/12/08 10:51:23;;;;;;;34.80;22.63;;;;;;;4.89;86.86;100448.31;5032967;28;20040;-85
2020/12/08 10:53:49;;;;;;;31.02;20.88;;;;;;;5.06;86.49;100440.00;5033726;28;20036;-85
2020/12/08 10:56:18;;;;;;;36.08;21.95;;;;;;;4.94;87.74;100437.72;5017253;28;20473;-85
2020/12/08 10:58:44;;;;;;;34.88;20.50;;;;;;;4.88;86.75;100448.38;5000839;28;20025;-85
2020/12/08 11:01:09;;;;;;;33.85;20.10;;;;;;;5.01;87.16;100439.25;5037796;28;20460;-85
2020/12/08 11:03:34;;;;;;;38.95;21.83;;;;;;;5.31;85.62;100431.44;5039267;28;20031;-85
2020/12/08 11:06:01;;;;;;;42.85;23.08;;;;;;;5.54;84.23;100441.25;5006051;28;20452;-85
2020/12/08 11:08:26;;;;;;;33.72;21.50;;;;;;;5.55;83.75;100448.19;5043346;28;20075;-86
2020/12/08 11:10:51;;;;;;;37.80;21.75;;;;;;;5.86;84.56;100441.09;5019965;28;20037;-85